createdAt,value
2019-04-04T00:01:55.890Z,11.25
2019-04-04T00:04:24.870Z,15.58
2019-04-04T00:06:53.778Z,13.00
2019-04-04T00:09:22.688Z,14.95
2019-04-04T00:11:51.592Z,11.00
2019-04-04T00:14:20.438Z,16.30
2019-04-04T00:16:49.416Z,11.48
2019-04-04T00:19:18.315Z,13.55
2019-04-04T00:21:47.226Z,13.70
2019-04-04T00:24:16.234Z,11.70
2019-04-04T00:26:45.140Z,13.35
2019-04-04T00:29:16.962Z,13.62
2019-04-04T00:31:44.593Z,13.88
2019-04-04T00:34:13.838Z,15.08
2019-04-04T00:36:42.820Z,12.98
2019-04-04T00:39:11.726Z,13.35
2019-04-04T00:41:40.685Z,10.35
2019-04-04T00:44:09.649Z,14.40
2019-04-04T00:46:38.552Z,12.20
2019-04-04T00:49:07.459Z,15.68
2019-04-04T00:51:38.741Z,13.22
2019-04-04T00:54:06.912Z,14.03
2019-04-04T00:56:35.820Z,14.78
2019-04-04T00:59:04.728Z,16.40
2019-04-04T01:01:33.635Z,17.55
2019-04-04T01:04:02.549Z,16.77
2019-04-04T01:06:31.871Z,14.25
2019-04-04T01:09:02.206Z,14.98
2019-04-04T01:11:31.108Z,13.13
2019-04-04T01:14:00.016Z,15.78
2019-04-04T01:16:28.905Z,14.70
2019-04-04T01:18:57.832Z,16.23
2019-04-04T01:21:26.845Z,13.45
2019-04-04T01:23:57.990Z,19.37
2019-04-04T01:26:26.295Z,11.57
2019-04-04T01:28:55.205Z,17.05
2019-04-04T01:31:24.215Z,13.38
2019-04-04T01:33:53.121Z,15.15
2019-04-04T01:36:23.167Z,16.52
2019-04-04T01:38:52.676Z,18.73
2019-04-04T01:41:21.583Z,13.58
2019-04-04T01:43:50.650Z,16.73
2019-04-04T01:46:19.609Z,14.20
2019-04-04T01:48:49.952Z,11.73
2019-04-04T01:51:19.281Z,13.38
2019-04-04T01:53:48.169Z,19.50
2019-04-04T01:56:17.084Z,16.57
2019-04-04T01:58:46.087Z,15.80
2019-04-04T02:01:16.567Z,15.38
2019-04-04T02:03:45.540Z,16.62
2019-04-04T02:06:14.447Z,13.40
2019-04-04T02:08:43.458Z,14.98
2019-04-04T02:11:12.366Z,15.93
2019-04-04T02:13:41.516Z,14.15
2019-04-04T02:16:10.591Z,13.08
2019-04-04T02:18:39.498Z,17.30
2019-04-04T02:21:08.409Z,14.75
2019-04-04T02:23:37.315Z,12.55
2019-04-04T02:26:06.323Z,16.55
2019-04-04T02:28:35.232Z,13.03
2019-04-04T02:31:05.961Z,16.52
2019-04-04T02:33:34.892Z,14.95
2019-04-04T02:36:03.819Z,13.68
2019-04-04T02:38:32.799Z,18.95
2019-04-04T02:41:01.716Z,15.80
2019-04-04T02:43:30.727Z,13.22
2019-04-04T02:45:59.633Z,14.03
2019-04-04T02:48:28.541Z,14.85
2019-04-04T02:50:57.553Z,16.73
2019-04-04T02:53:26.560Z,16.20
2019-04-04T02:55:55.576Z,12.82
2019-04-04T02:58:24.482Z,17.75
2019-04-04T03:00:53.372Z,17.20
2019-04-04T03:03:22.224Z,13.58
2019-04-04T03:05:52.319Z,13.72
2019-04-04T03:08:21.445Z,14.03
2019-04-04T03:10:50.455Z,14.90
2019-04-04T03:13:19.357Z,16.25
2019-04-04T03:15:48.573Z,18.25
2019-04-04T03:18:17.481Z,13.88
2019-04-04T03:20:49.297Z,19.57
2019-04-04T03:23:16.942Z,13.80
2019-04-04T03:25:47.403Z,14.47
2019-04-04T03:28:16.388Z,13.98
2019-04-04T03:30:52.628Z,16.87
2019-04-04T03:33:15.840Z,15.50
2019-04-04T03:35:44.748Z,14.00
2019-04-04T03:38:14.114Z,11.80
2019-04-04T03:40:43.385Z,15.08
2019-04-04T03:43:15.851Z,11.95
2019-04-04T03:45:42.835Z,18.67
2019-04-04T03:48:17.092Z,15.30
2019-04-04T03:53:16.356Z,16.80
2019-04-04T03:55:43.386Z,18.37
2019-04-04T03:58:12.290Z,12.23
2019-04-04T04:00:41.296Z,14.93
2019-04-04T04:03:10.204Z,17.48
2019-04-04T04:05:40.862Z,13.50
2019-04-04T04:08:09.970Z,15.43
2019-04-04T04:10:38.878Z,11.65
2019-04-04T04:13:08.512Z,14.93
2019-04-04T04:15:37.516Z,12.95
2019-04-04T04:18:06.398Z,16.07
2019-04-04T04:20:37.569Z,18.02
2019-04-04T04:23:05.867Z,13.00
2019-04-04T04:25:36.560Z,15.78
2019-04-04T04:28:05.332Z,19.10
2019-04-04T04:30:36.843Z,16.30
2019-04-04T04:33:04.860Z,15.78
2019-04-04T04:35:33.781Z,19.32
2019-04-04T04:38:02.690Z,20.82
2019-04-04T04:40:31.606Z,21.90
2019-04-04T04:43:01.018Z,17.40
2019-04-04T04:45:30.237Z,16.48
2019-04-04T04:47:59.171Z,17.30
2019-04-04T04:50:28.048Z,20.23
2019-04-04T04:52:56.973Z,17.52
2019-04-04T04:55:27.361Z,16.48
2019-04-04T04:57:56.733Z,17.20
2019-04-04T05:00:27.783Z,14.53
2019-04-04T05:02:56.579Z,16.02
2019-04-04T05:05:25.488Z,15.78
2019-04-04T05:07:55.057Z,14.58
2019-04-04T05:10:24.221Z,16.52
2019-04-04T05:12:53.674Z,14.63
2019-04-04T05:15:22.753Z,16.20
2019-04-04T05:17:51.588Z,19.62
2019-04-04T05:20:20.569Z,24.47
2019-04-04T05:22:49.487Z,17.17
2019-04-04T05:25:18.383Z,29.92
2019-04-04T05:27:47.291Z,20.48
2019-04-04T05:30:16.743Z,12.73
2019-04-04T05:32:46.852Z,15.80
2019-04-04T05:35:15.742Z,13.93
2019-04-04T05:37:44.662Z,20.05
2019-04-04T05:40:13.969Z,13.83
2019-04-04T05:42:42.819Z,12.07
2019-04-04T05:45:14.028Z,13.98
2019-04-04T05:47:42.648Z,13.85
2019-04-04T05:50:12.102Z,15.28
2019-04-04T05:52:42.090Z,19.75
2019-04-04T05:55:11.218Z,22.62
2019-04-04T05:57:40.078Z,12.07
2019-04-04T06:00:11.297Z,18.37
2019-04-04T06:05:10.111Z,20.80
2019-04-04T06:07:39.060Z,14.93
2019-04-04T06:10:08.229Z,19.57
2019-04-04T06:12:37.589Z,10.43
2019-04-04T06:15:07.985Z,17.37
2019-04-04T06:17:38.746Z,15.23
2019-04-04T06:20:08.785Z,18.15
2019-04-04T06:22:37.696Z,14.63
2019-04-04T06:25:06.899Z,12.58
2019-04-04T06:27:36.004Z,13.53
2019-04-04T06:30:05.949Z,15.20
2019-04-04T06:32:34.863Z,14.87
2019-04-04T06:35:03.767Z,12.15
2019-04-04T06:37:34.280Z,13.05
2019-04-04T06:40:03.326Z,14.00
2019-04-04T06:42:35.470Z,14.30
2019-04-04T06:45:02.822Z,18.05
2019-04-04T06:47:32.473Z,13.50
2019-04-04T06:50:01.762Z,11.22
2019-04-04T06:52:30.729Z,18.00
2019-04-04T06:54:59.740Z,15.80
2019-04-04T06:57:28.644Z,14.35
2019-04-04T06:59:57.555Z,12.90
2019-04-04T07:02:26.381Z,14.43
2019-04-04T07:04:55.377Z,16.80
2019-04-04T07:07:24.276Z,18.42
2019-04-04T07:09:53.390Z,18.00
2019-04-04T07:12:28.144Z,16.87
2019-04-04T07:14:52.843Z,12.30
2019-04-04T07:17:21.955Z,12.95
2019-04-04T07:19:50.966Z,13.03
2019-04-04T07:22:20.621Z,12.50
2019-04-04T07:24:49.654Z,18.75
2019-04-04T07:27:18.721Z,14.90
2019-04-04T07:29:47.619Z,13.98
2019-04-04T07:32:16.526Z,13.08
2019-04-04T07:34:45.937Z,11.60
2019-04-04T07:37:15.063Z,11.78
2019-04-04T07:39:43.966Z,19.90
2019-04-04T07:42:15.579Z,10.20
2019-04-04T07:44:44.033Z,8.75
2019-04-04T07:47:15.776Z,15.08
2019-04-04T07:49:43.591Z,12.15
2019-04-04T07:52:12.497Z,8.85
2019-04-04T07:54:41.394Z,12.73
2019-04-04T07:57:10.414Z,12.05
2019-04-04T07:59:39.432Z,19.48
2019-04-04T08:02:08.335Z,17.45
2019-04-04T08:04:37.249Z,11.80
2019-04-04T08:07:06.148Z,12.37
2019-04-04T08:09:35.055Z,15.18
2019-04-04T08:12:05.975Z,13.85
2019-04-04T08:14:34.612Z,18.32
2019-04-04T08:17:03.519Z,14.53
2019-04-04T08:19:32.426Z,11.60
2019-04-04T08:22:01.485Z,15.35
2019-04-04T08:24:32.161Z,15.10
2019-04-04T08:27:01.094Z,15.58
2019-04-04T08:29:29.995Z,8.45
2019-04-04T08:31:58.912Z,17.32
2019-04-04T08:34:27.824Z,10.45
2019-04-04T08:36:56.653Z,10.20
2019-04-04T08:39:25.634Z,10.72
2019-04-04T08:41:55.771Z,9.23
2019-04-04T08:44:24.682Z,9.40
2019-04-04T08:46:55.621Z,14.35
2019-04-04T08:49:24.130Z,13.58
2019-04-04T08:51:53.037Z,17.10
2019-04-04T08:54:21.946Z,22.37
2019-04-04T08:56:50.966Z,14.18
2019-04-04T08:59:19.819Z,14.07
2019-04-04T09:01:48.773Z,13.15
2019-04-04T09:04:17.782Z,16.87
2019-04-04T09:06:46.794Z,14.58
2019-04-04T09:09:15.700Z,13.60
2019-04-04T09:11:44.606Z,12.30
2019-04-04T09:14:13.515Z,13.38
2019-04-04T09:16:42.532Z,20.48
2019-04-04T09:19:11.432Z,12.15
2019-04-04T09:21:41.338Z,13.18
2019-04-04T09:24:10.252Z,21.33
2019-04-04T09:26:39.184Z,17.37
2019-04-04T09:29:08.088Z,20.35
2019-04-04T09:31:36.997Z,14.25
2019-04-04T09:34:06.007Z,13.72
2019-04-04T09:36:34.914Z,10.93
2019-04-04T09:39:06.357Z,8.30
2019-04-04T09:41:35.396Z,21.57
2019-04-04T09:44:06.006Z,13.90
2019-04-04T09:46:34.794Z,11.45
2019-04-04T09:49:03.759Z,13.60
2019-04-04T09:51:32.657Z,11.33
2019-04-04T09:54:01.566Z,13.25
2019-04-04T09:56:30.575Z,11.93
2019-04-04T09:58:59.587Z,15.18
2019-04-04T10:01:29.529Z,10.18
2019-04-04T10:03:58.424Z,15.18
2019-04-04T10:06:27.332Z,13.83
2019-04-04T10:08:56.247Z,11.05
2019-04-04T10:11:25.149Z,9.40
2019-04-04T10:13:54.261Z,7.85
2019-04-04T10:16:23.168Z,9.30
2019-04-04T10:18:52.782Z,12.55
2019-04-04T10:21:21.703Z,11.50
2019-04-04T10:23:50.609Z,16.60
2019-04-04T10:26:19.515Z,9.20
2019-04-04T10:28:48.427Z,10.23
2019-04-04T10:31:17.331Z,11.90
2019-04-04T10:33:46.239Z,20.25
2019-04-04T10:36:15.158Z,12.73
2019-04-04T10:38:44.005Z,17.05
2019-04-04T10:41:12.962Z,13.50
2019-04-04T10:43:41.871Z,15.83
2019-04-04T10:46:10.778Z,9.28
2019-04-04T10:48:39.686Z,7.95
2019-04-04T10:51:08.696Z,11.75
2019-04-04T10:53:37.604Z,9.98
2019-04-04T10:56:06.512Z,9.53
2019-04-04T10:58:35.419Z,11.70
2019-04-04T11:01:04.513Z,9.05
2019-04-04T11:03:34.361Z,10.45
2019-04-04T11:06:03.268Z,8.53
2019-04-04T11:08:32.280Z,12.03
2019-04-04T11:11:01.185Z,12.10
2019-04-04T11:13:33.871Z,14.75
2019-04-04T11:16:00.644Z,12.80
2019-04-04T11:18:29.546Z,8.88
2019-04-04T11:20:58.459Z,10.30
2019-04-04T11:23:27.363Z,9.55
2019-04-04T11:25:56.306Z,13.25
2019-04-04T11:28:25.181Z,7.10
2019-04-04T11:30:54.190Z,11.08
2019-04-04T11:33:23.095Z,5.05
2019-04-04T11:35:52.106Z,12.18
2019-04-04T11:38:21.116Z,11.78
2019-04-04T11:40:50.134Z,9.45
2019-04-04T11:43:19.033Z,11.33
2019-04-04T11:45:47.955Z,9.23
2019-04-04T11:48:16.850Z,10.85
2019-04-04T11:50:45.762Z,8.18
2019-04-04T11:53:14.665Z,8.28
2019-04-04T11:55:43.510Z,11.35
2019-04-04T11:58:12.481Z,8.70
2019-04-04T12:00:48.974Z,9.55
2019-04-04T12:03:17.975Z,10.55
2019-04-04T12:05:47.904Z,13.38
2019-04-04T12:08:16.797Z,11.12
2019-04-04T12:10:45.719Z,9.95
2019-04-04T12:13:14.627Z,11.73
2019-04-04T12:15:43.650Z,12.03
2019-04-04T12:18:12.546Z,10.15
2019-04-04T12:20:43.302Z,11.43
2019-04-04T12:23:12.102Z,10.58
2019-04-04T12:25:41.009Z,10.82
2019-04-04T12:28:10.027Z,8.03
2019-04-04T12:30:38.926Z,11.65
2019-04-04T12:33:07.941Z,11.95
2019-04-04T12:35:36.843Z,9.50
2019-04-04T12:38:05.752Z,10.13
2019-04-04T12:40:34.762Z,8.43
2019-04-04T12:43:03.670Z,7.70
2019-04-04T12:45:32.577Z,12.47
2019-04-04T12:48:01.590Z,16.32
2019-04-04T12:50:30.598Z,11.05
2019-04-04T12:52:59.505Z,10.90
2019-04-04T12:55:28.412Z,8.48
2019-04-04T12:57:57.300Z,12.82
2019-04-04T13:00:26.229Z,12.28
2019-04-04T13:02:55.151Z,10.63
2019-04-04T13:05:24.045Z,11.33
2019-04-04T13:07:53.974Z,11.12
2019-04-04T13:10:32.390Z,14.98
2019-04-04T13:12:53.530Z,9.00
2019-04-04T13:15:22.537Z,11.48
2019-04-04T13:17:51.449Z,11.18
2019-04-04T13:20:20.356Z,16.70
2019-04-04T13:22:49.266Z,11.12
2019-04-04T13:25:18.379Z,11.45
2019-04-04T13:27:47.222Z,22.02
2019-04-04T13:30:17.420Z,11.05
2019-04-04T13:32:46.329Z,9.65
2019-04-04T13:35:15.241Z,18.15
2019-04-04T13:37:44.144Z,12.78
2019-04-04T13:40:13.051Z,9.53
2019-04-04T13:42:41.967Z,11.63
2019-04-04T13:45:11.520Z,10.95
2019-04-04T13:47:40.612Z,12.23
2019-04-04T13:50:12.514Z,13.08
2019-04-04T13:52:41.173Z,8.58
2019-04-04T13:55:10.070Z,11.55
2019-04-04T13:57:39.463Z,12.03
2019-04-04T14:00:09.527Z,13.35
2019-04-04T14:02:38.548Z,11.03
2019-04-04T14:05:14.034Z,9.28
2019-04-04T14:07:43.742Z,11.40
2019-04-04T14:10:12.943Z,10.28
2019-04-04T14:12:41.952Z,10.43
2019-04-04T14:15:11.625Z,13.50
2019-04-04T14:17:43.522Z,12.00
2019-04-04T14:20:11.336Z,8.78
2019-04-04T14:22:51.226Z,11.40
2019-04-04T14:25:20.819Z,9.68
2019-04-04T14:27:49.932Z,13.32
2019-04-04T14:30:20.400Z,13.83
2019-04-04T14:32:49.384Z,8.65
2019-04-04T14:35:18.292Z,9.83
2019-04-04T14:37:47.161Z,15.53
2019-04-04T14:40:16.312Z,11.53
2019-04-04T14:42:45.223Z,11.48
2019-04-04T14:45:14.334Z,11.68
2019-04-04T14:47:43.344Z,13.95
2019-04-04T14:50:12.333Z,10.75
2019-04-04T14:52:41.363Z,13.10
2019-04-04T14:55:10.358Z,9.15
2019-04-04T14:57:39.385Z,16.40
2019-04-04T15:00:10.238Z,12.20
2019-04-04T15:02:39.248Z,8.45
2019-04-04T15:05:08.447Z,10.93
2019-04-04T15:07:37.367Z,11.68
2019-04-04T15:10:06.479Z,16.85
2019-04-04T15:12:35.375Z,10.00
2019-04-04T15:15:05.831Z,10.03
2019-04-04T15:17:34.847Z,8.70
2019-04-04T15:20:04.364Z,11.08
2019-04-04T15:22:33.375Z,7.80
2019-04-04T15:25:02.210Z,8.30
2019-04-04T15:27:31.196Z,8.65
2019-04-04T15:30:00.090Z,14.43
2019-04-04T15:32:29.007Z,10.25
2019-04-04T15:34:58.014Z,11.60
2019-04-04T15:37:27.025Z,11.65
2019-04-04T15:39:55.939Z,7.10
2019-04-04T15:42:24.944Z,9.75
2019-04-04T15:44:53.854Z,9.18
2019-04-04T15:47:22.758Z,6.70
2019-04-04T15:49:51.881Z,11.35
2019-04-04T15:52:20.732Z,12.30
2019-04-04T15:54:49.687Z,7.67
2019-04-04T15:57:18.595Z,11.75
2019-04-04T15:59:47.502Z,9.73
2019-04-04T16:02:16.397Z,9.00
2019-04-04T16:04:45.317Z,12.70
2019-04-04T16:07:14.428Z,9.08
2019-04-04T16:09:43.337Z,14.43
2019-04-04T16:12:12.245Z,13.08
2019-04-04T16:14:41.359Z,17.32
2019-04-04T16:17:10.242Z,10.43
2019-04-04T16:19:39.173Z,12.37
2019-04-04T16:22:08.084Z,10.18
2019-04-04T16:24:36.991Z,8.28
2019-04-04T16:27:05.895Z,7.42
2019-04-04T16:29:34.803Z,13.62
2019-04-04T16:32:05.530Z,13.38
2019-04-04T16:34:34.452Z,6.97
2019-04-04T16:37:03.351Z,9.85
2019-04-04T16:39:35.143Z,11.85
2019-04-04T16:42:02.932Z,12.50
2019-04-04T16:44:31.935Z,11.20
2019-04-04T16:47:00.841Z,8.83
2019-04-04T16:49:29.855Z,11.97
2019-04-04T16:51:58.761Z,7.45
2019-04-04T16:54:27.670Z,14.00
2019-04-04T16:56:56.575Z,9.63
2019-04-04T16:59:27.021Z,11.50
2019-04-04T17:01:56.336Z,9.38
2019-04-04T17:04:25.231Z,7.83
2019-04-04T17:06:54.849Z,9.65
2019-04-04T17:09:24.084Z,8.00
2019-04-04T17:11:52.993Z,7.00
2019-04-04T17:14:22.004Z,6.55
2019-04-04T17:16:51.013Z,11.08
2019-04-04T17:19:19.903Z,11.40
2019-04-04T17:21:48.931Z,10.80
2019-04-04T17:24:17.837Z,9.48
2019-04-04T17:26:46.745Z,10.63
2019-04-04T17:29:15.658Z,8.20
2019-04-04T17:31:44.584Z,8.48
2019-04-04T17:34:13.576Z,10.93
2019-04-04T17:36:42.826Z,10.48
2019-04-04T17:39:11.897Z,10.88
2019-04-04T17:41:40.805Z,10.28
2019-04-04T17:44:10.111Z,15.70
2019-04-04T17:46:39.342Z,11.12
2019-04-04T17:49:08.244Z,10.28
2019-04-04T17:51:37.595Z,12.98
2019-04-04T17:54:07.097Z,8.55
2019-04-04T17:56:36.535Z,11.10
2019-04-04T17:59:05.719Z,12.43
2019-04-04T18:01:34.834Z,10.90
2019-04-04T18:04:03.728Z,10.80
2019-04-04T18:06:32.646Z,17.82
2019-04-04T18:09:01.560Z,16.82
2019-04-04T18:11:30.563Z,16.70
2019-04-04T18:13:59.576Z,14.95
2019-04-04T18:16:28.585Z,17.32
2019-04-04T18:18:57.503Z,15.98
2019-04-04T18:21:26.326Z,13.83
2019-04-04T18:23:55.307Z,20.45
2019-04-04T18:26:24.327Z,12.85
2019-04-04T18:28:53.225Z,22.30
2019-04-04T18:31:22.134Z,16.73
2019-04-04T18:33:51.040Z,15.93
2019-04-04T18:36:19.949Z,15.15
2019-04-04T18:38:48.960Z,21.70
2019-04-04T18:41:17.888Z,18.57
2019-04-04T18:43:46.774Z,22.20
2019-04-04T18:46:15.683Z,16.02
2019-04-04T18:48:44.514Z,12.33
2019-04-04T18:51:13.485Z,15.20
2019-04-04T18:53:42.512Z,11.95
2019-04-04T18:56:11.415Z,18.45
2019-04-04T18:58:40.323Z,14.93
2019-04-04T19:01:09.235Z,16.45
2019-04-04T19:03:38.241Z,17.23
2019-04-04T19:06:07.149Z,15.93
2019-04-04T19:08:36.172Z,15.10
2019-04-04T19:11:05.357Z,20.62
2019-04-04T19:13:44.055Z,16.40
2019-04-04T19:16:05.012Z,15.75
2019-04-04T19:18:33.939Z,17.32
2019-04-04T19:21:02.847Z,22.20
2019-04-04T19:23:31.858Z,15.55
2019-04-04T19:26:00.765Z,17.73
2019-04-04T19:28:29.675Z,22.35
2019-04-04T19:30:58.866Z,13.43
2019-04-04T19:33:27.999Z,20.30
2019-04-04T19:35:56.909Z,17.85
2019-04-04T19:38:25.766Z,19.17
2019-04-04T19:40:54.724Z,18.20
2019-04-04T19:43:23.733Z,20.77
2019-04-04T19:45:52.642Z,21.55
2019-04-04T19:48:21.552Z,23.07
2019-04-04T19:50:51.079Z,21.33
2019-04-04T19:53:19.960Z,21.65
2019-04-04T19:55:48.905Z,22.95
2019-04-04T19:58:19.027Z,22.80
2019-04-04T20:00:48.140Z,24.70
2019-04-04T20:03:16.990Z,27.85
2019-04-04T20:05:45.950Z,24.18
2019-04-04T20:08:16.588Z,26.48
2019-04-04T20:10:45.492Z,20.05
2019-04-04T20:13:14.418Z,23.02
2019-04-04T20:15:43.325Z,24.02
2019-04-04T20:18:12.230Z,24.30
2019-04-04T20:20:41.239Z,24.57
2019-04-04T20:23:10.147Z,21.40
2019-04-04T20:25:39.054Z,24.45
2019-04-04T20:28:07.897Z,21.73
2019-04-04T20:30:38.730Z,24.20
2019-04-04T20:33:08.549Z,23.80
2019-04-04T20:35:37.564Z,24.40
2019-04-04T20:38:06.645Z,26.05
2019-04-04T20:40:35.572Z,25.70
2019-04-04T20:43:04.481Z,22.95
2019-04-04T20:45:33.592Z,20.20
2019-04-04T20:48:02.500Z,19.02
2019-04-04T20:50:31.426Z,21.35
2019-04-04T20:53:00.425Z,20.55
2019-04-04T20:55:29.345Z,19.52
2019-04-04T20:57:58.851Z,22.80
2019-04-04T21:00:27.759Z,18.37
2019-04-04T21:02:56.666Z,21.30
2019-04-04T21:05:25.572Z,21.52
2019-04-04T21:07:54.478Z,18.67
2019-04-04T21:10:23.364Z,21.90
2019-04-04T21:12:52.296Z,22.13
2019-04-04T21:15:21.306Z,21.82
2019-04-04T21:17:52.084Z,17.80
2019-04-04T21:20:20.762Z,19.07
2019-04-04T21:22:49.768Z,19.25
2019-04-04T21:25:18.678Z,17.60
2019-04-04T21:27:47.693Z,20.20
2019-04-04T21:30:16.907Z,18.87
2019-04-04T21:32:45.914Z,23.35
2019-04-04T21:35:14.806Z,20.23
2019-04-04T21:37:43.832Z,20.60
2019-04-04T21:40:12.738Z,17.37
2019-04-04T21:42:41.578Z,18.67
2019-04-04T21:45:10.653Z,21.33
2019-04-04T21:47:39.563Z,26.87
2019-04-04T21:50:08.469Z,19.52
2019-04-04T21:52:37.786Z,21.65
2019-04-04T21:55:07.422Z,19.55
2019-04-04T21:57:36.321Z,19.65
2019-04-04T22:00:07.174Z,21.20
2019-04-04T22:02:36.082Z,20.27
2019-04-04T22:05:08.195Z,17.20
2019-04-04T22:07:37.273Z,21.82
2019-04-04T22:10:07.915Z,18.98
2019-04-04T22:12:36.827Z,19.02
2019-04-04T22:15:07.987Z,19.05
2019-04-04T22:17:36.898Z,18.98
2019-04-04T22:20:07.847Z,25.02
2019-04-04T22:22:36.758Z,19.23
2019-04-04T22:25:08.426Z,21.40
2019-04-04T22:27:38.155Z,20.77
2019-04-04T22:30:09.319Z,19.20
2019-04-04T22:35:07.533Z,18.75
2019-04-04T22:37:36.445Z,24.10
2019-04-04T22:40:07.206Z,23.18
2019-04-04T22:42:36.117Z,26.90
2019-04-04T22:45:07.470Z,23.90
2019-04-04T22:47:36.376Z,18.52
2019-04-04T22:50:07.112Z,16.55
2019-04-04T22:52:36.137Z,19.42
2019-04-04T22:55:05.247Z,19.27
2019-04-04T22:57:34.155Z,19.10
2019-04-04T23:00:03.065Z,18.73
2019-04-04T23:02:31.971Z,20.30
2019-04-04T23:05:00.877Z,20.85
2019-04-04T23:07:29.772Z,19.05
2019-04-04T23:09:58.798Z,15.40
2019-04-04T23:12:27.806Z,20.00
2019-04-04T23:14:56.718Z,19.12
2019-04-04T23:17:25.607Z,20.17
2019-04-04T23:19:54.533Z,15.10
2019-04-04T23:22:23.437Z,18.35
2019-04-04T23:24:52.552Z,18.62
2019-04-04T23:27:21.457Z,24.02
2019-04-04T23:29:50.351Z,20.05
2019-04-04T23:32:19.378Z,18.15
2019-04-04T23:34:48.283Z,22.50
2019-04-04T23:37:17.192Z,17.55
2019-04-04T23:39:46.100Z,19.32
2019-04-04T23:42:15.015Z,21.70
2019-04-04T23:44:43.916Z,20.90
2019-04-04T23:47:12.822Z,20.05
2019-04-04T23:49:41.730Z,20.43
2019-04-04T23:52:10.638Z,16.93
2019-04-04T23:54:39.548Z,19.40
2019-04-04T23:57:08.457Z,20.25
2019-04-04T23:59:37.361Z,20.05
